West Mifflin, Pennsylvania
Current Conditions -  °F | °C
As of 9:53 PM on Monday 26 Jan 2015 (Local Time) from KAGC Reporting Station
Overcast Overcast  
Wind Chill: 11°   Ceiling: 1100
Heat Index: 22°   Visibility: 9mi
Dew Point: 16°   Wind: 10mph
Humidity: 78%   Direction: 320°NW
Pressure: 29.81"   Gusts: NA
Location:  40.35°N, 79.92°W
Report Text: KAGC 270253Z 32009KT 9SM OVC011 M06/M09 A2981 RMK AO2 SNE06 SLP115 P0000 60000 T10561089 51011
Loading
Personal Weather Stations






























Interactive Weather Map New forecast layout! Learn more

10-Day Weather Forecast

Advertisements
Track Severe Weather on mobile